Time;durP1;ratioP1;P1;durP2;ratioP2;P2;SDS_P1;SDS_P2;PMS_P1;PMS_P2;Temp;Humidity;BMP_temperature;BMP_pressure;BME280_temperature;BME280_humidity;BME280_pressure;Samples;Min_cycle;Max_cycle;Signal;HPM_P1;HPM_P2
2022/05/23 00:01:32;;;;;;;3.35;1.92;;;23.50;99.90;;;;;;4193152;28;20245;-79
2022/05/23 00:03:35;;;;;;;2.15;1.63;;;23.50;99.90;;;;;;4191806;28;20895;-79
2022/05/23 00:05:37;;;;;;;4.53;2.15;;;23.50;99.90;;;;;;4192750;28;20276;-79
2022/05/23 00:07:44;;;;;;;3.47;2.13;;;23.40;99.90;;;;;;4191369;28;20245;-78
2022/05/23 00:09:46;;;;;;;2.75;2.10;;;23.50;99.90;;;;;;4174935;28;20231;-79
2022/05/23 00:11:49;;;;;;;2.90;2.25;;;23.50;99.90;;;;;;4175941;28;20212;-79
2022/05/23 00:13:52;;;;;;;2.97;2.00;;;23.50;99.90;;;;;;4174202;28;20227;-78
2022/05/23 00:15:55;;;;;;;2.17;1.73;;;23.50;99.90;;;;;;4175000;28;20237;-83
2022/05/23 00:17:57;;;;;;;2.83;2.10;;;23.40;99.90;;;;;;4175544;28;20236;-77
2022/05/23 00:20:00;;;;;;;2.17;1.85;;;23.40;99.90;;;;;;4176205;28;20223;-78
2022/05/23 00:22:02;;;;;;;3.33;2.15;;;23.50;99.90;;;;;;4176324;28;20592;-77
2022/05/23 00:24:05;;;;;;;2.80;2.03;;;23.40;99.90;;;;;;4173613;28;20220;-77
2022/05/23 00:26:07;;;;;;;3.03;2.13;;;23.40;99.90;;;;;;4175302;28;20208;-78
2022/05/23 00:28:10;;;;;;;2.70;2.00;;;23.40;99.90;;;;;;4175226;28;20253;-78
2022/05/23 00:30:16;;;;;;;2.75;1.92;;;23.50;99.90;;;;;;4176237;28;20263;-78
2022/05/23 00:37:07;;;;;;;2.50;1.80;;;23.40;99.90;;;;;;4176545;28;20600;-78
2022/05/23 00:39:10;;;;;;;2.47;1.90;;;23.40;99.90;;;;;;4176999;28;20261;-78
2022/05/23 00:43:59;;;;;;;2.85;1.90;;;23.40;99.90;;;;;;4173828;28;20203;-78
2022/05/23 00:46:05;;;;;;;2.65;2.08;;;23.40;99.90;;;;;;4176124;28;20672;-78
2022/05/23 00:48:09;;;;;;;3.13;2.13;;;23.40;99.90;;;;;;4177645;28;20215;-78
2022/05/23 00:50:15;;;;;;;4.82;1.77;;;23.40;99.90;;;;;;4175873;28;20265;-78
2022/05/23 00:52:24;;;;;;;2.97;1.90;;;23.40;99.90;;;;;;4175665;28;20224;-78
2022/05/23 00:54:38;;;;;;;4.53;2.10;;;23.40;99.90;;;;;;4177437;28;20231;-78
2022/05/23 00:56:45;;;;;;;3.78;2.20;;;23.40;99.90;;;;;;4175282;28;20228;-78
2022/05/23 00:58:50;;;;;;;3.47;2.30;;;23.40;99.90;;;;;;4177011;28;20294;-78
2022/05/23 01:00:56;;;;;;;3.00;2.20;;;23.40;99.90;;;;;;4177022;28;20215;-78
2022/05/23 01:03:04;;;;;;;3.88;1.80;;;23.40;99.90;;;;;;4176250;28;20242;-78
2022/05/23 01:05:09;;;;;;;4.30;2.15;;;23.40;99.90;;;;;;4175499;28;20289;-78
2022/05/23 01:07:12;;;;;;;3.35;1.98;;;23.40;99.90;;;;;;4176979;28;20261;-78
2022/05/23 01:09:14;;;;;;;2.80;2.05;;;23.30;99.90;;;;;;4188141;28;20235;-78
2022/05/23 01:11:16;;;;;;;3.33;2.10;;;23.40;99.90;;;;;;4193530;28;20575;-78
2022/05/23 01:13:19;;;;;;;3.28;1.80;;;23.30;99.90;;;;;;4191971;28;20223;-78
2022/05/23 01:15:22;;;;;;;3.00;1.95;;;23.40;99.90;;;;;;4192156;28;20223;-78
2022/05/23 01:17:27;;;;;;;2.33;1.80;;;23.30;99.90;;;;;;4192968;28;20618;-78
2022/05/23 01:19:31;;;;;;;2.63;1.77;;;23.40;99.90;;;;;;4193298;28;20211;-78
2022/05/23 01:21:42;;;;;;;2.92;1.95;;;23.40;99.90;;;;;;4191280;28;20272;-78
2022/05/23 01:23:51;;;;;;;3.42;1.75;;;23.30;99.90;;;;;;4192937;28;20261;-78
2022/05/23 01:25:55;;;;;;;3.00;1.95;;;23.30;99.90;;;;;;4194160;28;20284;-78
2022/05/23 01:27:57;;;;;;;5.07;2.03;;;23.30;99.90;;;;;;4195542;28;20215;-78
2022/05/23 01:30:00;;;;;;;2.97;1.98;;;23.40;99.90;;;;;;4196523;28;20272;-78
2022/05/23 01:32:02;;;;;;;3.83;2.10;;;23.30;99.90;;;;;;4192898;28;20337;-78
2022/05/23 01:34:05;;;;;;;2.97;1.90;;;23.30;99.90;;;;;;4194627;28;20218;-78
2022/05/23 01:36:12;;;;;;;2.28;1.83;;;23.30;99.90;;;;;;4195804;28;20211;-78
2022/05/23 01:38:14;;;;;;;2.15;1.90;;;23.30;99.90;;;;;;4194462;28;20296;-78
2022/05/23 01:40:18;;;;;;;2.53;2.00;;;23.30;99.90;;;;;;4193634;28;20944;-78
2022/05/23 01:42:21;;;;;;;2.47;1.80;;;23.30;99.90;;;;;;4195189;28;20227;-78
2022/05/23 01:44:24;;;;;;;3.03;2.05;;;23.30;99.90;;;;;;4195586;28;20672;-78
2022/05/23 01:46:26;;;;;;;2.15;1.77;;;23.30;99.90;;;;;;4194714;28;20294;-78
2022/05/23 01:48:29;;;;;;;2.72;1.77;;;23.30;99.90;;;;;;4195330;28;20219;-80
2022/05/23 01:50:31;;;;;;;4.85;2.13;;;23.30;99.90;;;;;;4194919;28;20214;-78
2022/05/23 01:52:33;;;;;;;3.72;1.98;;;23.30;99.90;;;;;;4195456;28;20219;-78
2022/05/23 01:54:36;;;;;;;2.55;1.60;;;23.30;99.90;;;;;;4195157;28;20215;-78
2022/05/23 01:56:39;;;;;;;4.07;1.90;;;23.30;99.90;;;;;;4195426;28;20227;-78
2022/05/23 02:01:14;;;;;;;2.42;2.15;;;23.30;99.90;;;;;;4195851;28;20229;-78
2022/05/23 02:03:17;;;;;;;2.22;2.03;;;23.30;99.90;;;;;;4194933;28;20623;-78
2022/05/23 02:05:20;;;;;;;2.40;1.80;;;23.30;99.90;;;;;;4195461;28;20679;-78
2022/05/23 02:07:22;;;;;;;2.40;1.80;;;23.30;99.90;;;;;;4194753;28;20630;-78
2022/05/23 02:09:27;;;;;;;3.08;2.10;;;23.20;99.90;;;;;;4195120;28;20956;-78
2022/05/23 02:11:29;;;;;;;4.00;2.20;;;23.30;99.90;;;;;;4196249;28;20233;-78
2022/05/23 02:13:33;;;;;;;2.55;1.60;;;23.30;99.90;;;;;;4194797;28;20222;-78
2022/05/23 02:15:37;;;;;;;3.03;2.15;;;23.30;99.90;;;;;;4195222;28;20241;-78
2022/05/23 02:17:40;;;;;;;3.25;2.17;;;23.30;99.90;;;;;;4195376;28;20256;-77
2022/05/23 02:19:42;;;;;;;4.55;2.10;;;23.30;99.90;;;;;;4195053;28;20243;-78
2022/05/23 02:21:45;;;;;;;2.33;2.05;;;23.30;99.90;;;;;;4194970;28;20227;-78
2022/05/23 02:23:47;;;;;;;2.80;1.95;;;23.30;99.90;;;;;;4193955;28;20257;-78
2022/05/23 02:25:49;;;;;;;2.70;1.95;;;23.20;99.90;;;;;;4194336;28;20223;-78
2022/05/23 02:27:52;;;;;;;4.10;2.30;;;23.30;99.90;;;;;;4193820;28;20269;-78
2022/05/23 02:29:54;;;;;;;4.85;2.25;;;23.20;99.90;;;;;;4194906;28;20219;-78
2022/05/23 02:31:58;;;;;;;2.15;1.70;;;23.20;99.90;;;;;;4195763;28;20222;-78
2022/05/23 02:34:00;;;;;;;2.92;2.00;;;23.20;99.90;;;;;;4194955;28;20265;-78
2022/05/23 02:36:03;;;;;;;3.08;2.10;;;23.20;99.90;;;;;;4195192;28;20322;-78
2022/05/23 02:38:05;;;;;;;4.43;2.30;;;23.20;99.90;;;;;;4193035;28;20211;-78
2022/05/23 02:40:09;;;;;;;2.45;2.25;;;23.20;99.90;;;;;;4195542;28;20632;-78
2022/05/23 02:42:12;;;;;;;2.80;2.03;;;23.20;99.90;;;;;;4195183;28;20223;-78
2022/05/23 02:44:14;;;;;;;4.40;2.03;;;23.20;99.90;;;;;;4194949;28;20660;-78
2022/05/23 02:46:16;;;;;;;2.78;2.10;;;23.20;99.90;;;;;;4194844;28;20739;-78
2022/05/23 02:48:20;;;;;;;2.30;1.92;;;23.20;99.90;;;;;;4194629;28;20219;-78
2022/05/23 02:50:22;;;;;;;2.78;1.80;;;23.20;99.90;;;;;;4194683;28;21001;-78
2022/05/23 02:52:25;;;;;;;2.97;1.90;;;23.20;99.90;;;;;;4194618;28;20687;-78
2022/05/23 02:54:27;;;;;;;2.53;2.08;;;23.20;99.90;;;;;;4195054;28;20222;-78
2022/05/23 02:56:29;;;;;;;3.85;2.22;;;23.20;99.90;;;;;;4190374;28;20211;-78
2022/05/23 02:58:32;;;;;;;3.10;2.08;;;23.20;99.90;;;;;;4195029;28;20215;-78
2022/05/23 03:00:34;;;;;;;3.25;2.30;;;23.20;99.90;;;;;;4194394;28;20264;-78
2022/05/23 03:04:58;;;;;;;2.97;2.10;;;23.20;99.90;;;;;;4195119;28;20199;-78
2022/05/23 03:07:01;;;;;;;2.20;1.90;;;23.20;99.90;;;;;;4193949;28;20264;-78
2022/05/23 03:09:04;;;;;;;2.47;1.95;;;23.10;99.90;;;;;;4193197;28;20231;-78
2022/05/23 03:11:08;;;;;;;3.38;2.08;;;23.20;99.90;;;;;;4194473;28;20207;-78
2022/05/23 03:13:10;;;;;;;3.85;2.00;;;23.20;99.90;;;;;;4193643;28;20215;-78
2022/05/23 03:15:13;;;;;;;2.88;2.00;;;23.10;99.90;;;;;;4193953;28;20215;-78
2022/05/23 03:17:16;;;;;;;2.83;2.15;;;23.20;99.90;;;;;;4193095;28;20320;-78
2022/05/23 03:19:18;;;;;;;2.25;2.05;;;23.10;99.90;;;;;;4194569;28;20307;-78
2022/05/23 03:28:21;;;;;;;2.95;1.95;;;23.10;99.90;;;;;;4160714;28;20211;-78
2022/05/23 03:30:24;;;;;;;3.63;2.00;;;23.10;99.90;;;;;;4194464;28;20748;-78
2022/05/23 03:32:26;;;;;;;2.63;1.92;;;23.10;99.90;;;;;;4194551;28;20992;-78
2022/05/23 03:34:29;;;;;;;2.75;2.20;;;23.10;99.90;;;;;;4194405;28;20215;-78
2022/05/23 03:36:32;;;;;;;3.00;2.22;;;23.10;99.90;;;;;;4194247;28;20278;-78
2022/05/23 03:38:38;;;;;;;3.05;2.00;;;23.00;99.90;;;;;;4193994;28;20222;-78
2022/05/23 03:40:41;;;;;;;4.22;2.17;;;23.10;99.90;;;;;;4193875;28;20285;-78
2022/05/23 03:42:43;;;;;;;2.63;1.95;;;23.10;99.90;;;;;;4193672;28;20223;-78
2022/05/23 03:44:46;;;;;;;3.67;2.17;;;23.10;99.90;;;;;;4194036;28;20257;-78
2022/05/23 03:46:48;;;;;;;3.42;1.92;;;23.00;99.90;;;;;;4194272;28;20215;-78
2022/05/23 03:48:50;;;;;;;2.85;2.10;;;23.10;99.90;;;;;;4192993;28;20235;-78
2022/05/23 03:50:52;;;;;;;2.67;2.03;;;23.10;99.90;;;;;;4193580;28;20795;-78
2022/05/23 03:52:56;;;;;;;3.00;2.00;;;23.00;99.90;;;;;;4193910;28;21032;-78
2022/05/23 03:54:59;;;;;;;2.63;2.10;;;23.10;99.90;;;;;;4194104;28;20212;-78
2022/05/23 03:57:03;;;;;;;3.80;2.22;;;23.00;99.90;;;;;;4193391;28;20685;-78
2022/05/23 03:59:05;;;;;;;3.80;2.13;;;23.10;99.90;;;;;;4194136;28;20215;-78
2022/05/23 04:01:10;;;;;;;2.75;1.83;;;23.10;99.90;;;;;;4191995;28;20223;-78
2022/05/23 04:03:14;;;;;;;2.85;2.00;;;23.10;99.90;;;;;;4192848;28;20702;-78
2022/05/23 04:05:17;;;;;;;4.50;2.25;;;23.10;99.90;;;;;;4193108;28;20260;-78
2022/05/23 04:07:20;;;;;;;3.22;2.20;;;23.00;99.90;;;;;;4193701;28;20211;-78
2022/05/23 04:09:24;;;;;;;3.33;2.03;;;23.00;99.90;;;;;;4192194;28;20284;-78
2022/05/23 04:11:26;;;;;;;2.65;1.85;;;23.00;99.90;;;;;;4193243;28;20280;-78
2022/05/23 04:13:29;;;;;;;2.78;1.90;;;23.00;99.90;;;;;;4193004;28;20215;-78
2022/05/23 04:15:32;;;;;;;2.60;2.00;;;23.00;99.90;;;;;;4193024;28;20272;-78
2022/05/23 04:17:34;;;;;;;3.65;2.03;;;23.00;99.90;;;;;;4193187;28;20223;-78
2022/05/23 04:19:37;;;;;;;3.47;2.20;;;23.10;99.90;;;;;;4190812;28;20235;-78
2022/05/23 04:21:40;;;;;;;3.28;2.08;;;23.00;99.90;;;;;;4193442;28;20562;-78
2022/05/23 04:23:42;;;;;;;2.90;2.45;;;23.10;99.90;;;;;;4193122;28;20265;-79
2022/05/23 04:25:50;;;;;;;4.07;2.15;;;23.00;99.90;;;;;;4192899;28;20272;-78
2022/05/23 04:27:52;;;;;;;3.13;2.15;;;23.00;99.90;;;;;;4192601;28;20222;-78
2022/05/23 04:29:55;;;;;;;4.38;2.30;;;23.00;99.90;;;;;;4192531;28;20219;-78
2022/05/23 04:31:57;;;;;;;2.35;1.90;;;23.00;99.90;;;;;;4193319;28;20218;-78
2022/05/23 04:36:20;;;;;;;3.10;2.30;;;23.00;99.90;;;;;;4193501;28;20190;-78
2022/05/23 04:38:22;;;;;;;3.30;2.00;;;23.10;99.90;;;;;;4191608;28;20585;-78
2022/05/23 04:40:28;;;;;;;2.42;2.05;;;23.00;99.90;;;;;;4192814;28;20648;-78
2022/05/23 04:42:31;;;;;;;3.85;2.38;;;23.00;99.90;;;;;;4192635;28;20272;-78
2022/05/23 04:44:34;;;;;;;2.20;1.90;;;23.00;99.90;;;;;;4189308;28;20211;-78
2022/05/23 04:46:36;;;;;;;3.80;2.08;;;23.00;99.90;;;;;;4192928;28;20218;-78
2022/05/23 04:50:58;;;;;;;2.65;2.10;;;23.00;99.90;;;;;;4191765;28;20652;-78
2022/05/23 04:53:01;;;;;;;2.70;1.92;;;23.00;99.90;;;;;;4192631;28;20268;-78
2022/05/23 04:55:04;;;;;;;3.00;2.00;;;23.00;99.90;;;;;;4192728;28;20729;-78
2022/05/23 04:57:07;;;;;;;5.00;2.40;;;23.00;99.90;;;;;;4192147;28;20207;-78
2022/05/23 04:59:11;;;;;;;3.70;2.17;;;23.00;99.90;;;;;;4192742;28;20207;-78
2022/05/23 05:01:13;;;;;;;3.88;2.22;;;23.00;99.90;;;;;;4194827;28;20235;-79
2022/05/23 05:03:16;;;;;;;3.08;2.10;;;23.00;99.90;;;;;;4195055;28;20256;-78
2022/05/23 05:05:19;;;;;;;2.47;2.05;;;23.00;99.90;;;;;;4195572;28;20268;-78
2022/05/23 05:07:21;;;;;;;3.47;2.17;;;23.00;99.90;;;;;;4194624;28;20671;-78
2022/05/23 05:09:24;;;;;;;3.25;2.30;;;23.00;99.90;;;;;;4193190;28;20238;-79
2022/05/23 05:11:26;;;;;;;3.03;2.00;;;23.00;99.90;;;;;;4195809;28;20284;-78
2022/05/23 05:13:29;;;;;;;3.55;2.47;;;23.10;99.90;;;;;;4195637;28;20222;-78
2022/05/23 05:15:33;;;;;;;3.50;2.28;;;23.00;99.90;;;;;;4196371;28;20294;-78
2022/05/23 05:17:35;;;;;;;3.75;2.00;;;23.00;99.90;;;;;;4194829;28;20220;-78
2022/05/23 05:19:37;;;;;;;3.60;2.30;;;23.10;99.90;;;;;;4195832;28;20266;-78
2022/05/23 05:21:40;;;;;;;3.08;2.15;;;23.10;99.90;;;;;;4193412;28;20215;-78
2022/05/23 05:23:42;;;;;;;2.95;2.13;;;23.10;99.90;;;;;;4193999;28;20215;-78
2022/05/23 05:25:44;;;;;;;2.95;1.98;;;23.00;99.90;;;;;;4195484;28;20237;-78
2022/05/23 05:27:47;;;;;;;6.35;2.22;;;23.10;99.90;;;;;;4195601;28;20211;-78
2022/05/23 05:29:50;;;;;;;3.55;2.00;;;23.10;99.90;;;;;;4194925;28;20280;-78
2022/05/23 05:31:56;;;;;;;4.10;2.47;;;23.00;99.90;;;;;;4195978;28;20214;-78
2022/05/23 05:34:05;;;;;;;2.47;2.00;;;23.10;99.90;;;;;;4194334;28;20215;-78
2022/05/23 05:36:11;;;;;;;5.45;2.17;;;23.00;99.90;;;;;;4177180;28;20257;-77
2022/05/23 05:38:17;;;;;;;3.95;2.67;;;23.10;99.90;;;;;;4194449;28;20223;-76
2022/05/23 05:40:23;;;;;;;4.82;2.65;;;23.00;99.90;;;;;;4194990;28;20231;-78
2022/05/23 05:42:30;;;;;;;8.15;3.28;;;22.90;99.90;;;;;;4195949;28;20219;-78
2022/05/23 05:44:36;;;;;;;7.03;3.10;;;22.90;99.90;;;;;;4194724;28;20209;-77
2022/05/23 05:46:41;;;;;;;4.53;2.40;;;22.90;99.90;;;;;;4195517;28;20344;-78
2022/05/23 05:48:48;;;;;;;4.68;2.28;;;22.90;99.90;;;;;;4194652;28;20740;-77
2022/05/23 05:50:51;;;;;;;2.95;2.15;;;22.90;99.90;;;;;;4193824;28;20211;-78
2022/05/23 05:52:55;;;;;;;5.07;2.13;;;23.00;99.90;;;;;;4195264;28;20223;-78
2022/05/23 05:54:59;;;;;;;4.15;2.33;;;23.00;99.90;;;;;;4195085;28;20219;-78
2022/05/23 05:57:03;;;;;;;3.97;2.25;;;23.00;99.90;;;;;;4195360;28;20215;-78
2022/05/23 05:59:06;;;;;;;2.88;2.00;;;23.10;99.90;;;;;;4195151;28;20269;-78
2022/05/23 06:01:08;;;;;;;3.40;1.83;;;23.10;99.90;;;;;;4195583;28;20231;-77
2022/05/23 06:03:10;;;;;;;2.38;2.10;;;23.00;99.90;;;;;;4194512;28;20269;-78
2022/05/23 06:05:14;;;;;;;2.50;2.30;;;23.10;99.90;;;;;;4195048;28;20318;-78
2022/05/23 06:12:00;;;;;;;3.72;2.00;;;23.10;99.90;;;;;;4192328;28;20183;-78
2022/05/23 06:14:05;;;;;;;4.32;2.20;;;23.10;99.90;;;;;;4195785;28;20262;-78
2022/05/23 06:16:07;;;;;;;3.08;1.92;;;23.10;99.90;;;;;;4194283;28;20660;-78
2022/05/23 06:18:09;;;;;;;2.35;1.90;;;23.00;99.90;;;;;;4195094;28;20219;-78
2022/05/23 06:20:15;;;;;;;3.45;2.35;;;23.10;99.90;;;;;;4192576;28;20273;-78
2022/05/23 06:22:18;;;;;;;3.03;2.15;;;23.10;99.90;;;;;;4196100;28;20233;-78
2022/05/23 06:24:20;;;;;;;4.07;2.00;;;23.10;99.90;;;;;;4195237;28;20215;-78
2022/05/23 06:26:26;;;;;;;2.00;1.80;;;23.10;99.90;;;;;;4195978;28;20211;-80
2022/05/23 06:28:28;;;;;;;3.10;2.05;;;23.10;99.90;;;;;;4196063;28;20690;-78
2022/05/23 06:30:30;;;;;;;2.78;2.25;;;23.00;99.90;;;;;;4195919;28;20219;-80
2022/05/23 06:32:32;;;;;;;11.57;3.13;;;23.10;99.90;;;;;;4194176;28;20272;-78
2022/05/23 06:34:35;;;;;;;5.38;2.38;;;23.00;99.90;;;;;;4194738;28;20289;-79
2022/05/23 06:36:38;;;;;;;6.85;2.60;;;23.00;99.90;;;;;;4196444;28;20617;-80
2022/05/23 06:38:42;;;;;;;5.38;2.72;;;23.10;99.90;;;;;;4193381;28;20265;-81
2022/05/23 06:40:47;;;;;;;6.38;2.60;;;23.10;99.90;;;;;;4193966;28;20296;-78
2022/05/23 06:42:50;;;;;;;38.88;5.65;;;23.00;99.90;;;;;;4193366;28;20219;-77
2022/05/23 06:44:52;;;;;;;18.73;4.55;;;23.00;99.90;;;;;;4194594;28;20261;-76
2022/05/23 06:46:54;;;;;;;23.55;5.13;;;22.80;99.90;;;;;;4193978;28;20211;-77
2022/05/23 06:48:57;;;;;;;16.98;4.20;;;22.80;99.90;;;;;;4194098;28;20222;-78
2022/05/23 06:50:59;;;;;;;13.65;3.40;;;22.80;99.90;;;;;;4194004;28;20211;-76
2022/05/23 06:53:02;;;;;;;13.25;3.97;;;22.90;99.90;;;;;;4193629;28;20257;-76
2022/05/23 06:55:07;;;;;;;18.25;4.18;;;22.90;99.90;;;;;;4193319;28;20335;-76
2022/05/23 06:57:10;;;;;;;9.32;3.38;;;23.00;99.90;;;;;;4194241;28;20216;-77
2022/05/23 06:59:13;;;;;;;11.30;3.75;;;22.90;99.90;;;;;;4194579;28;20673;-76
2022/05/23 07:01:16;;;;;;;12.52;3.42;;;22.90;99.90;;;;;;4195015;28;20239;-77
2022/05/23 07:03:19;;;;;;;15.32;3.78;;;23.00;99.90;;;;;;4194289;28;20260;-77
2022/05/23 07:12:24;;;;;;;19.70;3.88;;;22.90;99.90;;;;;;4193266;28;20199;-77
2022/05/23 07:14:27;;;;;;;10.40;3.20;;;23.00;99.90;;;;;;4192966;28;20211;-77
2022/05/23 07:19:27;;;;;;;11.40;3.40;;;22.90;99.90;;;;;;4189709;28;20255;-78
2022/05/23 07:21:31;;;;;;;10.52;3.28;;;22.90;99.90;;;;;;4175459;28;21585;-78
2022/05/23 07:23:33;;;;;;;7.25;3.25;;;22.70;99.90;;;;;;4189564;28;20264;-79
2022/05/23 07:25:37;;;;;;;6.25;3.20;;;22.70;99.90;;;;;;4191676;28;20268;-78
2022/05/23 07:27:39;;;;;;;8.27;3.25;;;22.60;99.90;;;;;;4191469;28;20269;-78
2022/05/23 07:29:41;;;;;;;10.63;3.47;;;22.50;99.90;;;;;;4191777;28;20224;-79
2022/05/23 07:31:44;;;;;;;9.77;3.60;;;22.50;99.90;;;;;;4192366;28;20223;-80
2022/05/23 07:33:47;;;;;;;7.07;2.95;;;22.50;99.90;;;;;;4185106;28;20244;-79
2022/05/23 07:35:54;;;;;;;8.93;3.40;;;22.60;99.90;;;;;;4187434;28;20223;-78
2022/05/23 07:37:56;;;;;;;11.20;3.88;;;22.50;99.90;;;;;;4189221;28;20268;-78
2022/05/23 07:39:59;;;;;;;11.90;3.30;;;22.50;99.90;;;;;;4190403;28;20215;-78
2022/05/23 07:42:03;;;;;;;10.90;3.38;;;22.50;99.90;;;;;;4193010;28;20235;-81
2022/05/23 07:44:06;;;;;;;6.70;3.20;;;22.50;99.90;;;;;;4190579;28;20291;-80
2022/05/23 07:46:12;;;;;;;6.97;2.83;;;22.50;99.90;;;;;;4190872;28;20256;-80
2022/05/23 07:48:15;;;;;;;5.28;3.20;;;22.50;99.90;;;;;;4191623;28;20223;-79
2022/05/23 07:50:19;;;;;;;6.13;2.78;;;22.60;99.90;;;;;;4191896;28;20219;-79
2022/05/23 07:52:22;;;;;;;7.90;3.55;;;22.60;99.90;;;;;;4192567;28;20264;-79
2022/05/23 08:01:27;;;;;;;8.20;2.83;;;22.60;99.90;;;;;;4183187;28;20240;-79
2022/05/23 08:03:30;;;;;;;4.72;2.78;;;22.60;99.90;;;;;;4190945;28;20555;-79
2022/05/23 08:05:33;;;;;;;4.85;2.60;;;22.60;99.90;;;;;;4186036;28;20630;-78
2022/05/23 08:07:36;;;;;;;5.40;2.60;;;22.70;99.90;;;;;;4189768;28;20633;-79
2022/05/23 08:09:39;;;;;;;6.45;2.50;;;22.70;99.90;;;;;;4171466;28;20325;-78
2022/05/23 08:11:44;;;;;;;4.47;2.65;;;22.70;99.90;;;;;;4190989;28;20249;-79
2022/05/23 08:13:48;;;;;;;6.95;2.70;;;22.70;99.90;;;;;;4191016;28;20224;-78
2022/05/23 08:15:52;;;;;;;4.57;2.65;;;22.70;99.90;;;;;;4188058;28;20303;-78
2022/05/23 08:17:54;;;;;;;6.22;3.03;;;22.70;99.90;;;;;;4190574;28;20223;-78
2022/05/23 08:19:56;;;;;;;6.68;2.70;;;22.70;99.90;;;;;;4190063;28;20265;-73
2022/05/23 08:22:00;;;;;;;7.25;3.20;;;22.70;99.90;;;;;;4190495;28;20243;-74
2022/05/23 08:24:03;;;;;;;5.88;2.67;;;22.70;99.90;;;;;;4190565;28;20222;-74
2022/05/23 08:26:06;;;;;;;6.03;3.25;;;22.80;99.90;;;;;;4188622;28;20256;-74
2022/05/23 08:28:08;;;;;;;4.22;2.67;;;22.80;99.90;;;;;;4190536;28;20211;-74
2022/05/23 08:30:11;;;;;;;7.18;2.80;;;22.80;99.90;;;;;;4189974;28;20219;-74
2022/05/23 08:32:16;;;;;;;7.10;2.92;;;22.80;99.90;;;;;;4190697;28;20207;-74
2022/05/23 08:34:18;;;;;;;7.20;2.78;;;22.80;99.90;;;;;;4191950;28;20614;-74
2022/05/23 08:36:20;;;;;;;4.22;2.40;;;22.80;99.90;;;;;;4195012;28;20596;-75
2022/05/23 08:38:23;;;;;;;5.03;2.55;;;22.90;99.90;;;;;;4195148;28;20296;-74
2022/05/23 08:40:36;;;;;;;6.32;2.53;;;22.90;99.90;;;;;;4193763;28;20607;-74
2022/05/23 08:42:52;;;;;;;6.22;2.83;;;22.90;99.90;;;;;;4195564;28;20687;-74
2022/05/23 08:45:13;;;;;;;5.32;2.38;;;23.00;99.90;;;;;;4194144;28;20272;-74
2022/05/23 08:47:27;;;;;;;6.97;2.75;;;23.10;99.90;;;;;;4193702;28;20279;-75
2022/05/23 08:49:42;;;;;;;4.75;2.70;;;23.10;99.90;;;;;;4194680;28;20264;-74
2022/05/23 08:51:51;;;;;;;4.00;2.33;;;23.10;99.90;;;;;;4195354;28;20276;-74
2022/05/23 08:54:00;;;;;;;7.22;2.97;;;23.10;99.90;;;;;;4191967;28;20240;-74
2022/05/23 08:56:13;;;;;;;6.13;2.60;;;23.10;99.90;;;;;;4193157;28;20252;-75
2022/05/23 08:58:21;;;;;;;9.15;2.70;;;23.20;99.90;;;;;;4190407;28;20207;-75
2022/05/23 09:00:27;;;;;;;4.22;2.30;;;23.20;99.90;;;;;;4191839;28;20244;-74
2022/05/23 09:02:38;;;;;;;5.18;2.83;;;23.20;99.90;;;;;;4194635;28;20647;-74
2022/05/23 09:04:45;;;;;;;4.25;2.33;;;23.30;99.90;;;;;;4193593;28;20265;-74
2022/05/23 09:06:49;;;;;;;5.82;2.72;;;23.30;99.90;;;;;;4193226;28;21021;-73
2022/05/23 09:08:54;;;;;;;3.15;2.25;;;23.30;99.90;;;;;;4193144;28;20284;-73
2022/05/23 09:11:01;;;;;;;6.90;2.67;;;23.40;99.90;;;;;;4194842;28;20269;-73
2022/05/23 09:13:03;;;;;;;4.80;2.40;;;23.40;99.90;;;;;;4190697;28;20822;-73
2022/05/23 09:15:07;;;;;;;4.32;2.20;;;23.40;99.90;;;;;;4185550;28;20580;-73
2022/05/23 09:17:22;;;;;;;5.55;2.60;;;23.50;99.90;;;;;;4193794;28;20656;-74
2022/05/23 09:19:31;;;;;;;4.07;2.55;;;23.50;99.90;;;;;;4190985;28;20215;-74
2022/05/23 09:23:53;;;;;;;4.53;2.55;;;23.40;99.90;;;;;;4191193;28;20195;-73
2022/05/23 09:25:57;;;;;;;3.58;2.17;;;23.40;99.90;;;;;;4189560;28;20211;-74
2022/05/23 09:28:25;;;;;;;4.18;2.28;;;23.40;99.90;;;;;;4190759;28;20268;-73
2022/05/23 09:30:29;;;;;;;3.60;2.03;;;23.50;99.90;;;;;;4192513;28;20223;-74
2022/05/23 09:32:37;;;;;;;3.70;2.28;;;23.50;99.90;;;;;;4191420;28;20220;-75
2022/05/23 09:34:48;;;;;;;3.17;2.28;;;23.50;99.90;;;;;;4193111;28;20214;-75
2022/05/23 09:36:50;;;;;;;4.35;2.50;;;23.50;99.90;;;;;;4191666;28;20218;-75
2022/05/23 09:38:57;;;;;;;4.43;2.28;;;23.50;99.90;;;;;;4191574;28;20215;-74
2022/05/23 09:40:59;;;;;;;3.92;2.47;;;23.50;99.90;;;;;;4193373;28;20215;-75
2022/05/23 09:48:09;;;;;;;4.15;2.08;;;23.50;99.90;;;;;;4115674;28;20221;-75
2022/05/23 09:50:14;;;;;;;4.13;2.22;;;23.50;99.90;;;;;;4158998;28;20610;-75
2022/05/23 09:52:20;;;;;;;3.97;2.33;;;23.40;99.90;;;;;;4189669;28;20219;-75
2022/05/23 09:54:27;;;;;;;2.60;2.20;;;23.50;99.90;;;;;;4190669;28;20222;-75
2022/05/23 09:56:32;;;;;;;5.38;2.55;;;23.50;99.90;;;;;;4180984;28;20207;-75
2022/05/23 09:58:37;;;;;;;3.75;2.22;;;23.50;99.90;;;;;;4186753;28;20223;-75
2022/05/23 10:00:41;;;;;;;3.90;2.30;;;23.50;99.90;;;;;;4188040;28;20584;-75
2022/05/23 10:02:51;;;;;;;4.30;2.30;;;23.50;99.90;;;;;;4190569;28;20245;-76
2022/05/23 10:04:54;;;;;;;5.63;2.30;;;23.50;99.90;;;;;;4185990;28;20214;-75
2022/05/23 10:06:58;;;;;;;4.00;2.17;;;23.50;99.90;;;;;;4186121;28;20253;-75
2022/05/23 10:09:00;;;;;;;3.05;2.10;;;23.50;99.90;;;;;;4187139;28;20227;-75
2022/05/23 10:11:06;;;;;;;5.13;2.30;;;23.50;99.90;;;;;;4186171;28;20215;-75
2022/05/23 10:13:24;;;;;;;4.00;2.10;;;23.50;99.90;;;;;;4188666;28;20215;-75
2022/05/23 10:15:30;;;;;;;5.28;2.00;;;23.50;99.90;;;;;;4183198;28;20314;-75
2022/05/23 10:17:38;;;;;;;4.50;2.20;;;23.60;99.90;;;;;;4187020;28;20280;-80
2022/05/23 10:19:41;;;;;;;2.20;1.70;;;23.60;99.90;;;;;;4190634;28;20223;-79
2022/05/23 10:21:45;;;;;;;4.88;2.00;;;23.60;99.90;;;;;;4185366;28;20272;-77
2022/05/23 10:24:05;;;;;;;6.38;2.20;;;23.50;99.90;;;;;;4187253;28;20238;-78
2022/05/23 10:26:12;;;;;;;4.47;1.85;;;23.50;99.90;;;;;;4183822;28;20486;-77
2022/05/23 10:28:21;;;;;;;4.53;2.40;;;23.40;99.90;;;;;;4187138;28;20265;-77
2022/05/23 10:30:28;;;;;;;5.90;2.30;;;23.50;99.90;;;;;;4186234;28;20219;-78
2022/05/23 10:32:37;;;;;;;8.20;2.30;;;23.60;99.90;;;;;;4185521;28;20627;-80
2022/05/23 10:34:41;;;;;;;5.03;2.00;;;23.50;99.90;;;;;;4188101;28;20223;-77
2022/05/23 10:36:47;;;;;;;3.92;2.28;;;23.50;99.90;;;;;;4186593;28;20625;-76
2022/05/23 10:43:50;;;;;;;4.10;2.40;;;23.60;99.90;;;;;;4189180;28;20226;-78
2022/05/23 10:45:56;;;;;;;3.75;2.35;;;23.60;99.90;;;;;;4187440;28;20268;-72
2022/05/23 10:48:31;;;;;;;2.90;2.50;;;23.60;99.90;;;;;;4185081;28;21103;-73
2022/05/23 10:50:40;;;;;;;7.30;2.50;;;23.70;99.90;;;;;;4184019;28;20300;-74
2022/05/23 10:52:49;;;;;;;5.13;2.53;;;23.70;99.90;;;;;;4177123;28;21764;-73
2022/05/23 10:55:00;;;;;;;3.85;2.08;;;23.70;99.90;;;;;;4187827;28;20211;-73
2022/05/23 10:57:15;;;;;;;4.15;2.60;;;23.70;99.90;;;;;;4186017;28;20260;-73
2022/05/23 10:59:23;;;;;;;7.63;3.40;;;23.70;99.90;;;;;;4184086;28;20276;-73
2022/05/23 11:01:47;;;;;;;8.10;3.20;;;23.80;99.90;;;;;;4186084;28;20975;-72
2022/05/23 11:03:56;;;;;;;5.00;3.05;;;23.80;99.90;;;;;;4190495;28;20683;-74
2022/05/23 11:06:08;;;;;;;5.45;2.97;;;23.80;99.90;;;;;;4188902;28;20260;-73
2022/05/23 11:08:29;;;;;;;9.15;3.72;;;23.80;99.90;;;;;;4186564;28;20242;-74
2022/05/23 11:10:38;;;;;;;7.57;3.80;;;23.80;99.90;;;;;;4187743;28;20219;-74
2022/05/23 11:12:53;;;;;;;6.13;3.53;;;23.80;99.90;;;;;;4182374;28;20268;-74
2022/05/23 11:15:10;;;;;;;5.55;3.00;;;23.80;99.90;;;;;;4189601;28;20259;-75
2022/05/23 11:17:25;;;;;;;6.45;2.90;;;23.90;99.90;;;;;;4188298;28;20215;-74
2022/05/23 11:19:37;;;;;;;7.78;2.92;;;23.80;99.90;;;;;;4190346;28;20262;-74
2022/05/23 11:21:45;;;;;;;4.28;2.92;;;23.80;99.90;;;;;;4186509;28;20296;-74
2022/05/23 11:23:52;;;;;;;4.90;2.47;;;23.80;99.90;;;;;;4187220;28;20284;-74
2022/05/23 11:25:59;;;;;;;6.78;2.80;;;23.80;99.90;;;;;;4182447;28;20219;-75
2022/05/23 11:35:21;;;;;;;6.57;3.17;;;23.60;99.90;;;;;;4182490;28;20214;-75
2022/05/23 11:37:48;;;;;;;6.60;2.90;;;23.70;99.90;;;;;;4185111;28;20226;-77
2022/05/23 11:39:52;;;;;;;7.13;2.95;;;23.90;99.90;;;;;;4187308;28;20581;-77
2022/05/23 11:41:55;;;;;;;4.35;2.58;;;23.90;99.90;;;;;;4188361;28;20214;-76
2022/05/23 11:43:58;;;;;;;8.43;2.92;;;24.00;99.90;;;;;;4188361;28;20239;-77
2022/05/23 11:46:02;;;;;;;6.65;2.90;;;24.10;99.90;;;;;;4188769;28;20679;-76
2022/05/23 11:48:28;;;;;;;6.88;2.60;;;24.10;99.90;;;;;;4184264;28;20215;-79
2022/05/23 11:50:32;;;;;;;5.00;3.08;;;24.10;99.90;;;;;;4188055;28;20211;-79
2022/05/23 11:52:41;;;;;;;5.45;2.90;;;24.10;99.90;;;;;;4186876;28;20219;-79
2022/05/23 11:55:13;;;;;;;6.53;2.88;;;24.10;99.90;;;;;;4189261;28;20817;-79